Flight Track Log - Related Links

Times and Time Zones

All times are in EDT time to prevent confusion due to time zone crossing. See the AIP5037 flight status page for this flight to view local times or setup timezone preferences in your user account.

Time Position Orientation Groundspeed Altitude Reporting Facility
EDT Latitude Longitude Course Direction KTS MPH feet Rate Location/Type
Sat 01:11:16 AM 45.8261 -108.6108 287° West 157 181 5,800  Level Salt Lake Center
Sat 01:12:17 AM 45.8403 -108.6736 288° West 165 190 7,400 1,672 Climbing Salt Lake Center
Sat 01:13:18 AM 45.8603 -108.7422 293° West 173 199 9,200 1,377 Climbing Salt Lake Center
Sat 01:14:19 AM 45.8739 -108.8072 287° West 175 201 10,200 1,082 Climbing Salt Lake Center
Sat 01:15:20 AM 45.8897 -108.8761 288° West 181 208 11,400 1,033 Climbing Salt Lake Center
Sat 01:16:00 AM 45.9121 -109.0228 287° West  Level FlightAware Approximate
Sat 01:16:21 AM 45.9053 -108.9503 287° West 181 208 12,300  Level Salt Lake Center
Sat 01:17:23 AM 45.9242 -109.0203 291° West 190 219 13,300 976 Climbing Salt Lake Center
Sat 01:18:24 AM 45.9389 -109.0883 287° West 185 213 14,300 738 Climbing Salt Lake Center
Sat 01:19:25 AM 45.9567 -109.1653 288° West 186 214 14,800 295 Climbing Salt Lake Center
Sat 01:20:26 AM 45.9739 -109.2417 288° West 201 231 14,900 98 Climbing Salt Lake Center
Sat 01:21:27 AM 45.9900 -109.3247 286° West 215 247 15,000 49 Climbing Salt Lake Center
Sat 01:22:28 AM 46.0078 -109.4175 285° West 223 257 15,000 295 Level Salt Lake Center
Sat 01:23:29 AM 46.0258 -109.4981 288° West 215 247 15,600 492 Climbing Salt Lake Center
Sat 01:24:30 AM 46.0411 -109.5750 286° West 206 237 16,000 148 Climbing Salt Lake Center
Sat 01:25:31 AM 46.0603 -109.6619 288° West 210 242 15,900  Descending Salt Lake Center
Sat 01:26:32 AM 46.0778 -109.7456 287° West 217 250 16,000 98 Climbing Salt Lake Center
Sat 01:27:33 AM 46.0933 -109.8325 284° West 217 250 16,100 49 Climbing Salt Lake Center
Sat 01:28:34 AM 46.1136 -109.9164 289° West 220 253 16,100  Level Salt Lake Center
Sat 01:29:35 AM 46.1347 -110.0003 290° West 220 253 16,100  Level Salt Lake Center
Sat 01:30:35 AM 46.1547 -110.0811 290° West 220 253 16,100  Level Salt Lake Center
Sat 01:31:36 AM 46.1694 -110.1683 284° West 225 259 16,100 -49 Level Salt Lake Center
Sat 01:32:37 AM 46.1969 -110.2497 296° West 226 260 16,000 -49 Descending Salt Lake Center
Sat 01:33:38 AM 46.2167 -110.3300 290° West 220 253 16,000  Level Salt Lake Center
Sat 01:34:39 AM 46.2325 -110.4161 285° West 219 252 16,000  Level Salt Lake Center
Sat 01:35:40 AM 46.2500 -110.5050 286° West 223 257 16,000  Level Salt Lake Center
Sat 01:36:41 AM 46.2650 -110.5933 284° West 224 258 16,000  Level Salt Lake Center
Sat 01:37:42 AM 46.2767 -110.6806 281° West 224 258 16,000  Level Salt Lake Center
Sat 01:38:43 AM 46.2947 -110.7656 287° West 224 258 16,000  Level Salt Lake Center
Sat 01:39:44 AM 46.3169 -110.8653 288° West 222 255 16,000  Level Salt Lake Center
Sat 01:40:45 AM 46.3286 -110.9361 283° West 222 255 16,000  Level Salt Lake Center
Sat 01:41:45 AM 46.3547 -111.0417 290° West 229 264 16,000  Level Salt Lake Center
Sat 01:42:46 AM 46.3678 -111.1319 282° West 227 261 16,000  Level Salt Lake Center
Sat 01:43:47 AM 46.3856 -111.2200 286° West 230 265 16,000  Level Salt Lake Center
Sat 01:44:48 AM 46.3981 -111.3097 281° West 227 261 16,000  Level Salt Lake Center
Sat 01:45:49 AM 46.4133 -111.3914 285° West 226 260 16,000  Level Salt Lake Center
Sat 01:46:50 AM 46.4372 -111.4758 292° West 226 260 16,000  Level Salt Lake Center
Sat 01:47:50 AM 46.4544 -111.5519 288° West 226 260 16,000  Level Salt Lake Center
Sat 01:48:51 AM 46.4703 -111.6397 285° West 226 260 16,000  Level Salt Lake Center
Sat 01:49:52 AM 46.4864 -111.7275 285° West 227 261 16,000  Level Salt Lake Center
Sat 01:50:53 AM 46.5039 -111.8150 286° West 227 261 16,000  Level Salt Lake Center
Sat 01:51:53 AM 46.5225 -111.9197 285° West 226 260 16,000  Level Salt Lake Center
Sat 01:52:54 AM 46.5447 -112.0047 291° West 227 261 16,000  Level Salt Lake Center
Sat 01:53:55 AM 46.5606 -112.0919 285° West 227 261 16,000  Level Salt Lake Center
Sat 01:54:56 AM 46.5756 -112.1808 284° West 227 261 16,000 50 Level Salt Lake Center
Sat 01:55:56 AM 46.5947 -112.2678 288° West 228 262 16,100  Climbing Salt Lake Center
Sat 01:56:57 AM 46.6058 -112.3572 280° West 226 260 16,000 -49 Descending Salt Lake Center
Sat 01:57:58 AM 46.6242 -112.4456 287° West 229 264 16,000  Level Salt Lake Center
Sat 01:58:59 AM 46.6408 -112.5344 285° West 228 262 16,000  Level Salt Lake Center
Sat 01:59:59 AM 46.6578 -112.6233 286° West 228 262 16,000  Level Salt Lake Center
Sat 02:01:00 AM 46.6719 -112.7192 282° West 228 262 16,000  Level Salt Lake Center
Sat 02:02:01 AM 46.6911 -112.7992 289° West 228 262 16,000 -50 Level Salt Lake Center
Sat 02:03:01 AM 46.7056 -112.8869 284° West 226 260 15,900 -50 Descending Salt Lake Center
Sat 02:04:02 AM 46.7189 -112.9853 281° West 226 260 15,900 -98 Level Salt Lake Center
Sat 02:05:03 AM 46.7411 -113.0725 290° West 229 264 15,700 -347 Descending Salt Lake Center
Sat 02:06:03 AM 46.7556 -113.1678 283° West 238 274 15,200 -496 Descending Salt Lake Center
Sat 02:07:04 AM 46.7656 -113.2650 279° West 241 277 14,700 -590 Descending Salt Lake Center
Sat 02:08:05 AM 46.7767 -113.3694 279° West 245 282 14,000 -744 Descending Salt Lake Center
Sat 02:09:05 AM 46.7981 -113.4683 288° West 252 290 13,200 -893 Descending Salt Lake Center
Sat 02:10:06 AM 46.8197 -113.5814 286° West 266 306 12,200 -1,131 Descending Salt Lake Center
Sat 02:11:07 AM 46.8381 -113.6892 284° West 270 311 10,900 -1,190 Descending Salt Lake Center
Sat 02:12:07 AM 46.8608 -113.7906 288° West 269 310 9,800 -1,190 Descending Salt Lake Center
Sat 02:13:08 AM 46.8794 -113.8856 286° West 247 284 8,500 -1,388 Descending Salt Lake Center
Sat 02:14:08 AM 46.8711 -113.9639 261° West 199 229 7,000 -1,835 Descending Salt Lake Center
Sat 02:15:09 AM 46.8703 -114.0142 269° West 148 170 4,800 -1,672 Descending Salt Lake Center
Sat 02:16:10 AM 46.8947 -114.0558 311° West 137 158 3,600 -1,180 Descending Salt Lake Center
Sat 02:18:00 AM 46.9000 -114.0833 284° West  Level FlightAware Approximate
Sat 02:25:00 AM 46.9163 -114.0906 284° West  Level Estimated
Sat 02:26:00 AM 46.9163 -114.0906 163° South  Level Estimated
Sat 02:27:00 AM 46.9163 -114.0906 284° West  Level Estimated
Sat 02:28:00 AM 46.9163 -114.0906 163° South  Level Estimated
Sat 02:29:00 AM 46.9163 -114.0906 284° West  Level Estimated
Sat 02:30:00 AM 46.9163 -114.0906 163° South  Level Estimated
Sat 02:31:00 AM 46.9163 -114.0906 284° West  Level Estimated
Sat 02:32:00 AM 46.9163 -114.0906 163° South  Level Estimated

Login

Don't have an account? Register now (free) for customized features, flight alerts, and more!